sensor_id;sensor_type;location;lat;lon;timestamp;temperature;humidity
3684;DHT22;1858;48.716;9.648;2024-03-17T00:00:45;8.30;99.90
3684;DHT22;1858;48.716;9.648;2024-03-17T00:03:13;8.30;1.00
3684;DHT22;1858;48.716;9.648;2024-03-17T00:05:40;8.20;1.00
3684;DHT22;1858;48.716;9.648;2024-03-17T00:08:08;8.30;1.00
3684;DHT22;1858;48.716;9.648;2024-03-17T00:10:36;8.20;99.90
3684;DHT22;1858;48.716;9.648;2024-03-17T00:13:04;8.10;99.90
3684;DHT22;1858;48.716;9.648;2024-03-17T00:18:18;8.00;99.90
3684;DHT22;1858;48.716;9.648;2024-03-17T00:20:46;8.00;99.90
3684;DHT22;1858;48.716;9.648;2024-03-17T00:23:14;7.90;99.90
3684;DHT22;1858;48.716;9.648;2024-03-17T00:25:42;7.90;1.00
3684;DHT22;1858;48.716;9.648;2024-03-17T00:28:10;7.90;1.00
3684;DHT22;1858;48.716;9.648;2024-03-17T00:30:38;7.90;1.00
3684;DHT22;1858;48.716;9.648;2024-03-17T00:33:07;7.90;1.00
3684;DHT22;1858;48.716;9.648;2024-03-17T00:35:37;7.90;1.00
3684;DHT22;1858;48.716;9.648;2024-03-17T00:38:04;7.80;1.00
3684;DHT22;1858;48.716;9.648;2024-03-17T00:40:33;7.80;1.00
3684;DHT22;1858;48.716;9.648;2024-03-17T00:43:01;7.70;1.00
3684;DHT22;1858;48.716;9.648;2024-03-17T00:45:29;7.70;1.00
3684;DHT22;1858;48.716;9.648;2024-03-17T00:47:56;7.70;1.00
3684;DHT22;1858;48.716;9.648;2024-03-17T00:50:24;7.70;1.00
3684;DHT22;1858;48.716;9.648;2024-03-17T00:52:51;7.70;1.00
3684;DHT22;1858;48.716;9.648;2024-03-17T00:55:19;7.70;1.00
3684;DHT22;1858;48.716;9.648;2024-03-17T00:57:47;7.70;1.00
3684;DHT22;1858;48.716;9.648;2024-03-17T01:00:14;7.60;1.00
3684;DHT22;1858;48.716;9.648;2024-03-17T01:02:42;7.60;1.00
3684;DHT22;1858;48.716;9.648;2024-03-17T01:05:09;7.50;1.00
3684;DHT22;1858;48.716;9.648;2024-03-17T01:07:37;7.50;1.00
3684;DHT22;1858;48.716;9.648;2024-03-17T01:10:05;7.50;1.00
3684;DHT22;1858;48.716;9.648;2024-03-17T01:12:35;7.40;1.00
3684;DHT22;1858;48.716;9.648;2024-03-17T01:15:03;7.30;1.00
3684;DHT22;1858;48.716;9.648;2024-03-17T01:17:30;7.30;1.00
3684;DHT22;1858;48.716;9.648;2024-03-17T01:19:58;7.20;1.00
3684;DHT22;1858;48.716;9.648;2024-03-17T01:22:26;7.10;1.00
3684;DHT22;1858;48.716;9.648;2024-03-17T01:24:53;7.10;1.00
3684;DHT22;1858;48.716;9.648;2024-03-17T01:27:21;7.20;1.00
3684;DHT22;1858;48.716;9.648;2024-03-17T01:29:48;7.40;58.30
3684;DHT22;1858;48.716;9.648;2024-03-17T01:32:16;7.30;15.50
3684;DHT22;1858;48.716;9.648;2024-03-17T01:34:45;7.20;78.90
3684;DHT22;1858;48.716;9.648;2024-03-17T01:37:13;7.10;99.90
3684;DHT22;1858;48.716;9.648;2024-03-17T01:39:40;7.10;99.90
3684;DHT22;1858;48.716;9.648;2024-03-17T01:42:08;7.20;1.00
3684;DHT22;1858;48.716;9.648;2024-03-17T01:44:36;7.10;1.00
3684;DHT22;1858;48.716;9.648;2024-03-17T01:47:03;7.10;1.00
3684;DHT22;1858;48.716;9.648;2024-03-17T01:49:32;7.00;1.00
3684;DHT22;1858;48.716;9.648;2024-03-17T01:52:00;7.00;1.00
3684;DHT22;1858;48.716;9.648;2024-03-17T01:54:30;7.00;99.90
3684;DHT22;1858;48.716;9.648;2024-03-17T01:56:57;7.00;99.90
3684;DHT22;1858;48.716;9.648;2024-03-17T01:59:25;7.00;99.90
3684;DHT22;1858;48.716;9.648;2024-03-17T02:01:53;7.10;1.00
3684;DHT22;1858;48.716;9.648;2024-03-17T02:04:20;7.10;1.00
3684;DHT22;1858;48.716;9.648;2024-03-17T02:06:48;7.20;99.90
3684;DHT22;1858;48.716;9.648;2024-03-17T02:09:16;7.30;99.90
3684;DHT22;1858;48.716;9.648;2024-03-17T02:11:45;7.30;99.90
3684;DHT22;1858;48.716;9.648;2024-03-17T02:14:13;7.30;75.10
3684;DHT22;1858;48.716;9.648;2024-03-17T02:16:41;7.40;1.00
3684;DHT22;1858;48.716;9.648;2024-03-17T02:19:08;7.50;1.00
3684;DHT22;1858;48.716;9.648;2024-03-17T02:21:36;7.50;1.00
3684;DHT22;1858;48.716;9.648;2024-03-17T02:24:04;7.50;1.00
3684;DHT22;1858;48.716;9.648;2024-03-17T02:26:32;7.50;1.00
3684;DHT22;1858;48.716;9.648;2024-03-17T02:29:01;7.50;1.00
3684;DHT22;1858;48.716;9.648;2024-03-17T02:31:29;7.60;1.00
3684;DHT22;1858;48.716;9.648;2024-03-17T02:33:56;7.60;99.90
3684;DHT22;1858;48.716;9.648;2024-03-17T02:36:24;7.60;99.90
3684;DHT22;1858;48.716;9.648;2024-03-17T02:38:52;7.70;99.90
3684;DHT22;1858;48.716;9.648;2024-03-17T02:41:24;7.70;99.90
3684;DHT22;1858;48.716;9.648;2024-03-17T02:43:51;7.80;99.90
3684;DHT22;1858;48.716;9.648;2024-03-17T02:46:19;7.70;99.90
3684;DHT22;1858;48.716;9.648;2024-03-17T02:48:49;7.80;99.90
3684;DHT22;1858;48.716;9.648;2024-03-17T02:51:17;7.80;99.90
3684;DHT22;1858;48.716;9.648;2024-03-17T02:53:46;7.90;99.90
3684;DHT22;1858;48.716;9.648;2024-03-17T02:56:14;7.90;99.90
3684;DHT22;1858;48.716;9.648;2024-03-17T03:01:31;8.00;48.20
3684;DHT22;1858;48.716;9.648;2024-03-17T03:03:59;7.90;81.70
3684;DHT22;1858;48.716;9.648;2024-03-17T03:06:26;8.00;99.90
3684;DHT22;1858;48.716;9.648;2024-03-17T03:08:54;8.00;99.90
3684;DHT22;1858;48.716;9.648;2024-03-17T03:11:21;8.00;19.00
3684;DHT22;1858;48.716;9.648;2024-03-17T03:13:49;7.90;24.70
3684;DHT22;1858;48.716;9.648;2024-03-17T03:16:17;7.90;38.60
3684;DHT22;1858;48.716;9.648;2024-03-17T03:18:46;7.90;99.90
3684;DHT22;1858;48.716;9.648;2024-03-17T03:21:13;8.00;39.30
3684;DHT22;1858;48.716;9.648;2024-03-17T03:23:42;8.00;1.00
3684;DHT22;1858;48.716;9.648;2024-03-17T03:26:11;8.00;15.80
3684;DHT22;1858;48.716;9.648;2024-03-17T03:28:39;8.00;1.00
3684;DHT22;1858;48.716;9.648;2024-03-17T03:31:10;8.00;1.00
3684;DHT22;1858;48.716;9.648;2024-03-17T03:33:35;8.00;1.00
3684;DHT22;1858;48.716;9.648;2024-03-17T03:36:12;8.00;1.00
3684;DHT22;1858;48.716;9.648;2024-03-17T03:38:40;8.00;1.00
3684;DHT22;1858;48.716;9.648;2024-03-17T03:41:15;8.00;1.00
3684;DHT22;1858;48.716;9.648;2024-03-17T03:43:43;8.00;1.00
3684;DHT22;1858;48.716;9.648;2024-03-17T03:46:12;7.90;1.00
3684;DHT22;1858;48.716;9.648;2024-03-17T03:48:40;7.80;1.00
3684;DHT22;1858;48.716;9.648;2024-03-17T03:51:08;7.80;1.00
3684;DHT22;1858;48.716;9.648;2024-03-17T03:53:36;7.80;1.00
3684;DHT22;1858;48.716;9.648;2024-03-17T03:56:04;7.80;35.60
3684;DHT22;1858;48.716;9.648;2024-03-17T03:58:34;7.80;99.90
3684;DHT22;1858;48.716;9.648;2024-03-17T04:01:05;7.80;99.90
3684;DHT22;1858;48.716;9.648;2024-03-17T04:03:33;7.80;99.90
3684;DHT22;1858;48.716;9.648;2024-03-17T04:06:05;7.90;99.90
3684;DHT22;1858;48.716;9.648;2024-03-17T04:08:35;7.90;99.90
3684;DHT22;1858;48.716;9.648;2024-03-17T04:11:22;7.90;40.30
3684;DHT22;1858;48.716;9.648;2024-03-17T04:13:50;7.90;7.40
3684;DHT22;1858;48.716;9.648;2024-03-17T04:16:17;7.90;15.30
3684;DHT22;1858;48.716;9.648;2024-03-17T04:18:45;7.80;23.90
3684;DHT22;1858;48.716;9.648;2024-03-17T04:21:13;7.80;60.70
3684;DHT22;1858;48.716;9.648;2024-03-17T04:23:40;7.80;99.90
3684;DHT22;1858;48.716;9.648;2024-03-17T04:26:08;7.80;79.90
3684;DHT22;1858;48.716;9.648;2024-03-17T04:28:36;7.80;93.90
3684;DHT22;1858;48.716;9.648;2024-03-17T04:31:04;7.70;27.90
3684;DHT22;1858;48.716;9.648;2024-03-17T04:33:32;7.60;1.00
3684;DHT22;1858;48.716;9.648;2024-03-17T04:36:00;7.60;52.50
3684;DHT22;1858;48.716;9.648;2024-03-17T04:38:30;7.70;99.90
3684;DHT22;1858;48.716;9.648;2024-03-17T04:40:57;7.60;51.00
3684;DHT22;1858;48.716;9.648;2024-03-17T04:46:18;7.50;96.10
3684;DHT22;1858;48.716;9.648;2024-03-17T04:48:45;7.50;99.90
3684;DHT22;1858;48.716;9.648;2024-03-17T04:51:16;7.50;99.90
3684;DHT22;1858;48.716;9.648;2024-03-17T04:53:44;7.60;99.90
3684;DHT22;1858;48.716;9.648;2024-03-17T04:56:11;7.60;99.90
3684;DHT22;1858;48.716;9.648;2024-03-17T04:58:39;7.60;99.90
3684;DHT22;1858;48.716;9.648;2024-03-17T05:01:07;7.60;99.90
3684;DHT22;1858;48.716;9.648;2024-03-17T05:03:34;7.70;99.90
3684;DHT22;1858;48.716;9.648;2024-03-17T05:06:05;7.70;99.90
3684;DHT22;1858;48.716;9.648;2024-03-17T05:08:33;7.60;99.90
3684;DHT22;1858;48.716;9.648;2024-03-17T05:11:05;7.60;99.90
3684;DHT22;1858;48.716;9.648;2024-03-17T05:13:33;7.60;99.90
3684;DHT22;1858;48.716;9.648;2024-03-17T05:16:01;7.60;79.10
3684;DHT22;1858;48.716;9.648;2024-03-17T05:18:30;7.50;99.90
3684;DHT22;1858;48.716;9.648;2024-03-17T05:20:59;7.40;99.90
3684;DHT22;1858;48.716;9.648;2024-03-17T05:23:33;7.30;99.90
3684;DHT22;1858;48.716;9.648;2024-03-17T05:25:56;7.30;99.90
3684;DHT22;1858;48.716;9.648;2024-03-17T05:28:24;7.30;99.90
3684;DHT22;1858;48.716;9.648;2024-03-17T05:30:52;7.20;99.90
3684;DHT22;1858;48.716;9.648;2024-03-17T05:33:20;7.30;99.90
3684;DHT22;1858;48.716;9.648;2024-03-17T05:35:52;7.30;99.90
3684;DHT22;1858;48.716;9.648;2024-03-17T05:41:32;7.30;99.90
3684;DHT22;1858;48.716;9.648;2024-03-17T05:44:00;7.20;99.90
3684;DHT22;1858;48.716;9.648;2024-03-17T05:46:29;7.20;99.90
3684;DHT22;1858;48.716;9.648;2024-03-17T05:48:57;7.20;99.90
3684;DHT22;1858;48.716;9.648;2024-03-17T05:51:25;7.10;99.90
3684;DHT22;1858;48.716;9.648;2024-03-17T05:53:54;7.20;99.90
3684;DHT22;1858;48.716;9.648;2024-03-17T05:56:23;7.10;99.90
3684;DHT22;1858;48.716;9.648;2024-03-17T05:58:51;7.10;99.90
3684;DHT22;1858;48.716;9.648;2024-03-17T06:01:19;7.20;99.90
3684;DHT22;1858;48.716;9.648;2024-03-17T06:03:46;7.20;99.90
3684;DHT22;1858;48.716;9.648;2024-03-17T06:06:14;7.30;99.90
3684;DHT22;1858;48.716;9.648;2024-03-17T06:08:41;7.40;99.90
3684;DHT22;1858;48.716;9.648;2024-03-17T06:11:10;7.40;99.90
3684;DHT22;1858;48.716;9.648;2024-03-17T06:13:38;7.40;99.90
3684;DHT22;1858;48.716;9.648;2024-03-17T06:16:05;7.50;99.90
3684;DHT22;1858;48.716;9.648;2024-03-17T06:18:33;7.60;99.90
3684;DHT22;1858;48.716;9.648;2024-03-17T06:21:01;7.60;99.90
3684;DHT22;1858;48.716;9.648;2024-03-17T06:23:30;7.60;99.90
3684;DHT22;1858;48.716;9.648;2024-03-17T06:25:57;7.60;99.90
3684;DHT22;1858;48.716;9.648;2024-03-17T06:28:25;7.80;99.90
3684;DHT22;1858;48.716;9.648;2024-03-17T06:30:59;8.00;98.60
3684;DHT22;1858;48.716;9.648;2024-03-17T06:33:28;8.20;72.80
3684;DHT22;1858;48.716;9.648;2024-03-17T06:35:58;8.60;1.00
3684;DHT22;1858;48.716;9.648;2024-03-17T06:38:27;8.90;1.00
3684;DHT22;1858;48.716;9.648;2024-03-17T06:40:55;9.10;99.90
3684;DHT22;1858;48.716;9.648;2024-03-17T06:46:10;9.20;99.90
3684;DHT22;1858;48.716;9.648;2024-03-17T06:48:37;9.20;89.00
3684;DHT22;1858;48.716;9.648;2024-03-17T06:51:05;9.20;34.40
3684;DHT22;1858;48.716;9.648;2024-03-17T06:53:33;9.10;41.80
3684;DHT22;1858;48.716;9.648;2024-03-17T06:56:00;9.00;99.90
3684;DHT22;1858;48.716;9.648;2024-03-17T06:58:28;9.30;99.90
3684;DHT22;1858;48.716;9.648;2024-03-17T07:00:57;9.50;99.90
3684;DHT22;1858;48.716;9.648;2024-03-17T07:03:26;9.70;72.80
3684;DHT22;1858;48.716;9.648;2024-03-17T07:05:57;9.90;1.00
3684;DHT22;1858;48.716;9.648;2024-03-17T07:08:25;10.00;1.00
3684;DHT22;1858;48.716;9.648;2024-03-17T07:10:56;10.20;1.00
3684;DHT22;1858;48.716;9.648;2024-03-17T07:13:24;10.20;1.00
3684;DHT22;1858;48.716;9.648;2024-03-17T07:15:51;10.40;1.00
3684;DHT22;1858;48.716;9.648;2024-03-17T07:18:19;10.60;1.00
3684;DHT22;1858;48.716;9.648;2024-03-17T07:20:47;10.80;1.00
3684;DHT22;1858;48.716;9.648;2024-03-17T07:23:14;11.50;1.00
3684;DHT22;1858;48.716;9.648;2024-03-17T07:25:42;11.90;1.00
3684;DHT22;1858;48.716;9.648;2024-03-17T07:28:11;12.20;99.90
3684;DHT22;1858;48.716;9.648;2024-03-17T07:30:44;12.40;99.90
3684;DHT22;1858;48.716;9.648;2024-03-17T07:33:08;12.50;99.90
3684;DHT22;1858;48.716;9.648;2024-03-17T07:35:36;12.40;99.90
3684;DHT22;1858;48.716;9.648;2024-03-17T07:38:06;12.30;99.90
3684;DHT22;1858;48.716;9.648;2024-03-17T07:40:34;12.50;99.90
3684;DHT22;1858;48.716;9.648;2024-03-17T07:43:01;12.70;99.90
3684;DHT22;1858;48.716;9.648;2024-03-17T07:45:29;13.00;99.90
3684;DHT22;1858;48.716;9.648;2024-03-17T07:47:57;13.50;99.90
3684;DHT22;1858;48.716;9.648;2024-03-17T07:50:25;14.10;99.90
3684;DHT22;1858;48.716;9.648;2024-03-17T07:52:53;14.50;99.90
3684;DHT22;1858;48.716;9.648;2024-03-17T07:55:21;14.70;41.10
3684;DHT22;1858;48.716;9.648;2024-03-17T07:57:48;14.90;32.40
3684;DHT22;1858;48.716;9.648;2024-03-17T08:00:17;15.00;1.00
3684;DHT22;1858;48.716;9.648;2024-03-17T08:02:46;14.90;1.00
3684;DHT22;1858;48.716;9.648;2024-03-17T08:05:14;14.80;1.00
3684;DHT22;1858;48.716;9.648;2024-03-17T08:07:41;14.80;1.00
3684;DHT22;1858;48.716;9.648;2024-03-17T08:10:09;14.80;1.00
3684;DHT22;1858;48.716;9.648;2024-03-17T08:12:37;15.10;1.00
3684;DHT22;1858;48.716;9.648;2024-03-17T08:15:04;15.50;1.00
3684;DHT22;1858;48.716;9.648;2024-03-17T08:17:32;15.60;1.00
3684;DHT22;1858;48.716;9.648;2024-03-17T08:19:59;15.60;1.00
3684;DHT22;1858;48.716;9.648;2024-03-17T08:22:27;15.60;1.00
3684;DHT22;1858;48.716;9.648;2024-03-17T08:24:55;16.10;1.00
3684;DHT22;1858;48.716;9.648;2024-03-17T08:27:22;17.00;1.00
3684;DHT22;1858;48.716;9.648;2024-03-17T08:29:50;17.10;1.00
3684;DHT22;1858;48.716;9.648;2024-03-17T08:32:17;16.60;1.00
3684;DHT22;1858;48.716;9.648;2024-03-17T08:34:48;16.20;1.00
3684;DHT22;1858;48.716;9.648;2024-03-17T08:40:03;15.80;1.00
3684;DHT22;1858;48.716;9.648;2024-03-17T08:42:32;15.50;1.00
3684;DHT22;1858;48.716;9.648;2024-03-17T08:45:00;15.60;1.00
3684;DHT22;1858;48.716;9.648;2024-03-17T08:47:27;16.10;1.00
3684;DHT22;1858;48.716;9.648;2024-03-17T08:49:55;16.80;1.00
3684;DHT22;1858;48.716;9.648;2024-03-17T08:52:24;17.60;1.00
3684;DHT22;1858;48.716;9.648;2024-03-17T08:54:52;18.60;1.00
3684;DHT22;1858;48.716;9.648;2024-03-17T08:57:19;19.10;1.00
3684;DHT22;1858;48.716;9.648;2024-03-17T08:59:47;19.20;1.00
3684;DHT22;1858;48.716;9.648;2024-03-17T09:02:15;19.20;1.00
3684;DHT22;1858;48.716;9.648;2024-03-17T09:04:42;19.10;1.00
3684;DHT22;1858;48.716;9.648;2024-03-17T09:07:10;18.70;1.00
3684;DHT22;1858;48.716;9.648;2024-03-17T09:09:37;18.50;1.00
3684;DHT22;1858;48.716;9.648;2024-03-17T09:12:05;18.30;1.00
3684;DHT22;1858;48.716;9.648;2024-03-17T09:14:33;18.60;1.00
3684;DHT22;1858;48.716;9.648;2024-03-17T09:17:00;19.50;1.00
3684;DHT22;1858;48.716;9.648;2024-03-17T09:19:29;20.30;1.00
3684;DHT22;1858;48.716;9.648;2024-03-17T09:21:56;20.80;1.00
3684;DHT22;1858;48.716;9.648;2024-03-17T09:24:24;21.70;99.90
3684;DHT22;1858;48.716;9.648;2024-03-17T09:26:53;22.40;99.90
3684;DHT22;1858;48.716;9.648;2024-03-17T09:29:21;22.60;99.90
3684;DHT22;1858;48.716;9.648;2024-03-17T09:31:51;22.60;99.90
3684;DHT22;1858;48.716;9.648;2024-03-17T09:34:20;22.70;99.90
3684;DHT22;1858;48.716;9.648;2024-03-17T09:36:48;23.10;99.90
3684;DHT22;1858;48.716;9.648;2024-03-17T09:39:16;23.60;99.90
3684;DHT22;1858;48.716;9.648;2024-03-17T09:41:46;23.80;99.90
3684;DHT22;1858;48.716;9.648;2024-03-17T09:44:14;24.20;99.90
3684;DHT22;1858;48.716;9.648;2024-03-17T09:46:42;24.60;99.90
3684;DHT22;1858;48.716;9.648;2024-03-17T09:49:14;24.70;99.90
3684;DHT22;1858;48.716;9.648;2024-03-17T09:51:42;24.90;99.90
3684;DHT22;1858;48.716;9.648;2024-03-17T09:54:15;24.50;99.90
3684;DHT22;1858;48.716;9.648;2024-03-17T09:56:40;24.20;99.90
3684;DHT22;1858;48.716;9.648;2024-03-17T09:59:08;24.10;99.90
3684;DHT22;1858;48.716;9.648;2024-03-17T10:01:36;23.90;99.90
3684;DHT22;1858;48.716;9.648;2024-03-17T10:04:03;23.10;99.90
3684;DHT22;1858;48.716;9.648;2024-03-17T10:06:31;22.90;99.90
3684;DHT22;1858;48.716;9.648;2024-03-17T10:08:59;22.80;99.90
3684;DHT22;1858;48.716;9.648;2024-03-17T10:11:35;22.70;99.90
3684;DHT22;1858;48.716;9.648;2024-03-17T10:14:05;23.00;99.90
3684;DHT22;1858;48.716;9.648;2024-03-17T10:16:35;23.10;99.90
3684;DHT22;1858;48.716;9.648;2024-03-17T10:19:15;23.20;99.90
3684;DHT22;1858;48.716;9.648;2024-03-17T10:21:46;23.50;99.90
3684;DHT22;1858;48.716;9.648;2024-03-17T10:24:24;23.90;99.90
3684;DHT22;1858;48.716;9.648;2024-03-17T10:26:53;23.70;99.90
3684;DHT22;1858;48.716;9.648;2024-03-17T10:31:54;23.90;99.90
3684;DHT22;1858;48.716;9.648;2024-03-17T10:34:23;23.80;99.90
3684;DHT22;1858;48.716;9.648;2024-03-17T10:37:18;24.10;99.90
3684;DHT22;1858;48.716;9.648;2024-03-17T10:39:25;24.00;99.90
3684;DHT22;1858;48.716;9.648;2024-03-17T10:41:56;24.20;99.90
3684;DHT22;1858;48.716;9.648;2024-03-17T10:44:29;24.30;99.90
3684;DHT22;1858;48.716;9.648;2024-03-17T10:47:00;24.20;99.90
3684;DHT22;1858;48.716;9.648;2024-03-17T10:49:31;24.20;99.90
3684;DHT22;1858;48.716;9.648;2024-03-17T10:52:00;24.00;99.90
3684;DHT22;1858;48.716;9.648;2024-03-17T10:54:28;23.80;99.90
3684;DHT22;1858;48.716;9.648;2024-03-17T10:56:57;23.30;99.90
3684;DHT22;1858;48.716;9.648;2024-03-17T10:59:28;23.10;99.90
3684;DHT22;1858;48.716;9.648;2024-03-17T11:02:26;23.00;99.90
3684;DHT22;1858;48.716;9.648;2024-03-17T11:05:04;22.80;99.90
3684;DHT22;1858;48.716;9.648;2024-03-17T11:07:27;23.10;99.90
3684;DHT22;1858;48.716;9.648;2024-03-17T11:09:55;23.20;99.90
3684;DHT22;1858;48.716;9.648;2024-03-17T11:12:44;23.20;99.90
3684;DHT22;1858;48.716;9.648;2024-03-17T11:17:53;23.00;99.90
3684;DHT22;1858;48.716;9.648;2024-03-17T11:20:24;23.10;99.90
3684;DHT22;1858;48.716;9.648;2024-03-17T11:22:58;23.30;99.90
3684;DHT22;1858;48.716;9.648;2024-03-17T11:28:43;23.60;99.90
3684;DHT22;1858;48.716;9.648;2024-03-17T11:30:48;23.20;99.90
3684;DHT22;1858;48.716;9.648;2024-03-17T11:38:53;23.30;99.90
3684;DHT22;1858;48.716;9.648;2024-03-17T11:41:41;23.60;99.90
3684;DHT22;1858;48.716;9.648;2024-03-17T11:47:01;23.80;99.90
3684;DHT22;1858;48.716;9.648;2024-03-17T11:49:37;23.60;99.90
3684;DHT22;1858;48.716;9.648;2024-03-17T11:54:53;22.70;99.90
3684;DHT22;1858;48.716;9.648;2024-03-17T11:57:22;22.40;99.90
3684;DHT22;1858;48.716;9.648;2024-03-17T11:59:50;22.30;99.90
3684;DHT22;1858;48.716;9.648;2024-03-17T12:02:29;22.10;99.90
3684;DHT22;1858;48.716;9.648;2024-03-17T12:04:57;22.00;99.90
3684;DHT22;1858;48.716;9.648;2024-03-17T12:07:45;21.70;99.90
3684;DHT22;1858;48.716;9.648;2024-03-17T12:10:12;21.30;99.90
3684;DHT22;1858;48.716;9.648;2024-03-17T12:12:41;21.10;99.90
3684;DHT22;1858;48.716;9.648;2024-03-17T12:15:18;20.90;99.90
3684;DHT22;1858;48.716;9.648;2024-03-17T12:17:52;21.00;99.90
3684;DHT22;1858;48.716;9.648;2024-03-17T12:20:20;20.90;99.90
3684;DHT22;1858;48.716;9.648;2024-03-17T12:22:48;20.80;99.90
3684;DHT22;1858;48.716;9.648;2024-03-17T12:25:18;20.70;99.90
3684;DHT22;1858;48.716;9.648;2024-03-17T12:27:47;20.30;99.90
3684;DHT22;1858;48.716;9.648;2024-03-17T12:30:15;20.50;99.90
3684;DHT22;1858;48.716;9.648;2024-03-17T12:32:44;20.40;99.90
3684;DHT22;1858;48.716;9.648;2024-03-17T12:35:16;20.50;99.90
3684;DHT22;1858;48.716;9.648;2024-03-17T12:37:49;20.60;99.90
3684;DHT22;1858;48.716;9.648;2024-03-17T12:40:19;20.70;99.90
3684;DHT22;1858;48.716;9.648;2024-03-17T12:42:49;20.70;99.90
3684;DHT22;1858;48.716;9.648;2024-03-17T12:48:10;20.40;99.90
3684;DHT22;1858;48.716;9.648;2024-03-17T12:53:20;20.30;99.90
3684;DHT22;1858;48.716;9.648;2024-03-17T12:55:55;20.20;99.90
3684;DHT22;1858;48.716;9.648;2024-03-17T12:58:41;20.00;99.90
3684;DHT22;1858;48.716;9.648;2024-03-17T13:01:26;19.90;99.90
3684;DHT22;1858;48.716;9.648;2024-03-17T13:03:54;19.90;99.90
3684;DHT22;1858;48.716;9.648;2024-03-17T13:06:24;19.90;99.90
3684;DHT22;1858;48.716;9.648;2024-03-17T13:08:52;19.80;99.90
3684;DHT22;1858;48.716;9.648;2024-03-17T13:11:21;19.70;99.90
3684;DHT22;1858;48.716;9.648;2024-03-17T13:13:49;19.50;99.90
3684;DHT22;1858;48.716;9.648;2024-03-17T13:16:16;19.50;99.90
3684;DHT22;1858;48.716;9.648;2024-03-17T13:21:31;19.60;99.90
3684;DHT22;1858;48.716;9.648;2024-03-17T13:23:59;19.50;99.90
3684;DHT22;1858;48.716;9.648;2024-03-17T13:26:26;19.50;99.90
3684;DHT22;1858;48.716;9.648;2024-03-17T13:28:54;19.50;99.90
3684;DHT22;1858;48.716;9.648;2024-03-17T13:31:21;19.50;99.90
3684;DHT22;1858;48.716;9.648;2024-03-17T13:33:49;19.50;99.90
3684;DHT22;1858;48.716;9.648;2024-03-17T13:36:16;19.40;99.90
3684;DHT22;1858;48.716;9.648;2024-03-17T13:38:44;19.30;99.90
3684;DHT22;1858;48.716;9.648;2024-03-17T13:41:12;19.20;99.90
3684;DHT22;1858;48.716;9.648;2024-03-17T13:43:40;19.10;99.90
3684;DHT22;1858;48.716;9.648;2024-03-17T13:46:08;19.00;99.90
3684;DHT22;1858;48.716;9.648;2024-03-17T13:48:36;19.00;99.90
3684;DHT22;1858;48.716;9.648;2024-03-17T13:51:04;18.90;99.90
3684;DHT22;1858;48.716;9.648;2024-03-17T13:53:32;18.80;99.90
3684;DHT22;1858;48.716;9.648;2024-03-17T13:55:59;18.70;99.90
3684;DHT22;1858;48.716;9.648;2024-03-17T13:58:27;18.70;99.90
3684;DHT22;1858;48.716;9.648;2024-03-17T14:00:55;18.80;99.90
3684;DHT22;1858;48.716;9.648;2024-03-17T14:03:23;18.90;99.90
3684;DHT22;1858;48.716;9.648;2024-03-17T14:05:51;18.90;99.90
3684;DHT22;1858;48.716;9.648;2024-03-17T14:08:18;18.80;99.90
3684;DHT22;1858;48.716;9.648;2024-03-17T14:10:46;18.80;99.90
3684;DHT22;1858;48.716;9.648;2024-03-17T14:13:14;18.70;99.90
3684;DHT22;1858;48.716;9.648;2024-03-17T14:15:41;18.80;99.90
3684;DHT22;1858;48.716;9.648;2024-03-17T14:18:09;18.80;99.90
3684;DHT22;1858;48.716;9.648;2024-03-17T14:20:37;18.80;99.90
3684;DHT22;1858;48.716;9.648;2024-03-17T14:23:04;18.80;99.90
3684;DHT22;1858;48.716;9.648;2024-03-17T14:25:32;18.80;99.90
3684;DHT22;1858;48.716;9.648;2024-03-17T14:30:48;18.80;99.90
3684;DHT22;1858;48.716;9.648;2024-03-17T14:33:16;18.80;99.90
3684;DHT22;1858;48.716;9.648;2024-03-17T14:35:43;18.80;99.90
3684;DHT22;1858;48.716;9.648;2024-03-17T14:38:12;18.90;99.90
3684;DHT22;1858;48.716;9.648;2024-03-17T14:40:41;19.00;99.90
3684;DHT22;1858;48.716;9.648;2024-03-17T14:43:10;18.90;99.90
3684;DHT22;1858;48.716;9.648;2024-03-17T14:45:37;18.60;99.90
3684;DHT22;1858;48.716;9.648;2024-03-17T14:48:05;18.60;99.90
3684;DHT22;1858;48.716;9.648;2024-03-17T14:50:35;18.40;99.90
3684;DHT22;1858;48.716;9.648;2024-03-17T14:53:02;18.40;99.90
3684;DHT22;1858;48.716;9.648;2024-03-17T14:55:31;18.40;99.90
3684;DHT22;1858;48.716;9.648;2024-03-17T14:57:59;18.40;99.90
3684;DHT22;1858;48.716;9.648;2024-03-17T15:00:29;18.40;99.90
3684;DHT22;1858;48.716;9.648;2024-03-17T15:02:58;18.50;99.90
3684;DHT22;1858;48.716;9.648;2024-03-17T15:05:25;18.50;99.90
3684;DHT22;1858;48.716;9.648;2024-03-17T15:07:53;18.60;99.90
3684;DHT22;1858;48.716;9.648;2024-03-17T15:10:21;18.60;99.90
3684;DHT22;1858;48.716;9.648;2024-03-17T15:12:50;18.60;99.90
3684;DHT22;1858;48.716;9.648;2024-03-17T15:15:18;18.30;99.90
3684;DHT22;1858;48.716;9.648;2024-03-17T15:17:46;18.30;99.90
3684;DHT22;1858;48.716;9.648;2024-03-17T15:20:15;18.30;99.90
3684;DHT22;1858;48.716;9.648;2024-03-17T15:22:46;18.20;99.90
3684;DHT22;1858;48.716;9.648;2024-03-17T15:25:15;18.30;99.90
3684;DHT22;1858;48.716;9.648;2024-03-17T15:27:44;18.20;99.90
3684;DHT22;1858;48.716;9.648;2024-03-17T15:30:15;18.20;99.90
3684;DHT22;1858;48.716;9.648;2024-03-17T15:32:45;18.10;99.90
3684;DHT22;1858;48.716;9.648;2024-03-17T15:35:13;18.00;99.90
3684;DHT22;1858;48.716;9.648;2024-03-17T15:37:44;18.00;99.90
3684;DHT22;1858;48.716;9.648;2024-03-17T15:40:11;17.70;99.90
3684;DHT22;1858;48.716;9.648;2024-03-17T15:42:41;17.50;99.90
3684;DHT22;1858;48.716;9.648;2024-03-17T15:47:55;17.40;99.90
3684;DHT22;1858;48.716;9.648;2024-03-17T15:50:23;17.40;99.90
3684;DHT22;1858;48.716;9.648;2024-03-17T15:52:52;17.40;99.90
3684;DHT22;1858;48.716;9.648;2024-03-17T15:55:19;17.20;99.90
3684;DHT22;1858;48.716;9.648;2024-03-17T15:57:49;17.20;99.90
3684;DHT22;1858;48.716;9.648;2024-03-17T16:00:16;17.10;99.90
3684;DHT22;1858;48.716;9.648;2024-03-17T16:02:44;17.10;99.90
3684;DHT22;1858;48.716;9.648;2024-03-17T16:05:31;17.00;99.90
3684;DHT22;1858;48.716;9.648;2024-03-17T16:07:59;16.90;99.90
3684;DHT22;1858;48.716;9.648;2024-03-17T16:10:28;16.90;99.90
3684;DHT22;1858;48.716;9.648;2024-03-17T16:12:56;16.80;99.90
3684;DHT22;1858;48.716;9.648;2024-03-17T16:15:27;16.70;99.90
3684;DHT22;1858;48.716;9.648;2024-03-17T16:17:55;16.60;99.90
3684;DHT22;1858;48.716;9.648;2024-03-17T16:26:07;16.30;99.90
3684;DHT22;1858;48.716;9.648;2024-03-17T16:28:35;16.10;1.00
3684;DHT22;1858;48.716;9.648;2024-03-17T16:31:03;16.00;1.00
3684;DHT22;1858;48.716;9.648;2024-03-17T16:33:38;15.90;1.00
3684;DHT22;1858;48.716;9.648;2024-03-17T16:36:02;15.70;1.00
3684;DHT22;1858;48.716;9.648;2024-03-17T16:38:38;15.70;1.00
3684;DHT22;1858;48.716;9.648;2024-03-17T16:41:06;15.60;1.00
3684;DHT22;1858;48.716;9.648;2024-03-17T16:46:28;15.40;1.00
3684;DHT22;1858;48.716;9.648;2024-03-17T16:48:50;15.40;1.00
3684;DHT22;1858;48.716;9.648;2024-03-17T16:51:18;15.30;1.00
3684;DHT22;1858;48.716;9.648;2024-03-17T16:53:47;15.20;1.00
3684;DHT22;1858;48.716;9.648;2024-03-17T16:56:16;15.20;1.00
3684;DHT22;1858;48.716;9.648;2024-03-17T16:58:44;15.10;1.00
3684;DHT22;1858;48.716;9.648;2024-03-17T17:01:12;15.00;1.00
3684;DHT22;1858;48.716;9.648;2024-03-17T17:03:41;14.90;1.00
3684;DHT22;1858;48.716;9.648;2024-03-17T17:06:09;14.80;1.00
3684;DHT22;1858;48.716;9.648;2024-03-17T17:08:37;14.70;1.00
3684;DHT22;1858;48.716;9.648;2024-03-17T17:11:04;14.60;1.00
3684;DHT22;1858;48.716;9.648;2024-03-17T17:13:33;14.60;1.00
3684;DHT22;1858;48.716;9.648;2024-03-17T17:16:01;14.50;1.00
3684;DHT22;1858;48.716;9.648;2024-03-17T17:21:17;14.50;1.00
3684;DHT22;1858;48.716;9.648;2024-03-17T17:23:45;14.40;1.00
3684;DHT22;1858;48.716;9.648;2024-03-17T17:26:33;14.50;1.00